Time;durP1;ratioP1;P1;durP2;ratioP2;P2;SDS_P1;SDS_P2;PMS_P1;PMS_P2;Temp;Humidity;BMP_temperature;BMP_pressure;BME280_temperature;BME280_humidity;BME280_pressure;Samples;Min_cycle;Max_cycle;Signal;HPM_P1;HPM_P2
2022/10/04 00:01:52;;;;;;;6.32;5.20;;;13.00;99.90;;;;;;5077238;28;20384;-76
2022/10/04 00:04:42;;;;;;;8.63;4.47;;;13.00;99.90;;;;;;5091171;28;20072;-76
2022/10/04 00:07:10;;;;;;;11.82;4.97;;;12.90;99.90;;;;;;5073243;28;20016;-76
2022/10/04 00:10:02;;;;;;;10.57;4.28;;;12.80;99.90;;;;;;5075920;28;20033;-76
2022/10/04 00:12:31;;;;;;;5.10;4.10;;;12.80;99.90;;;;;;5076886;28;20473;-76
2022/10/04 00:15:01;;;;;;;9.82;4.72;;;12.80;99.90;;;;;;5077039;28;20122;-76
2022/10/04 00:17:34;;;;;;;4.70;4.05;;;12.80;99.90;;;;;;5074971;28;20408;-76
2022/10/04 00:20:03;;;;;;;7.75;4.50;;;12.70;99.90;;;;;;5075511;28;20091;-76
2022/10/04 00:22:32;;;;;;;8.43;4.40;;;12.70;99.90;;;;;;5076930;28;20032;-76
2022/10/04 00:25:18;;;;;;;8.52;4.63;;;12.70;99.90;;;;;;5076759;28;20016;-76
2022/10/04 00:28:13;;;;;;;7.43;4.80;;;12.60;99.90;;;;;;5069041;28;20016;-76
2022/10/04 00:30:39;;;;;;;7.35;5.38;;;12.60;99.90;;;;;;5053630;28;20497;-76
2022/10/04 00:33:05;;;;;;;8.18;5.07;;;12.50;99.90;;;;;;5075300;28;20043;-76
2022/10/04 00:35:31;;;;;;;11.65;5.63;;;12.50;99.90;;;;;;5076592;28;20523;-76
2022/10/04 00:38:00;;;;;;;8.63;5.30;;;12.50;99.90;;;;;;5075180;28;20017;-76
2022/10/04 00:40:32;;;;;;;9.10;5.28;;;12.50;99.90;;;;;;5076720;28;20043;-76
2022/10/04 00:43:07;;;;;;;8.73;5.25;;;12.40;99.90;;;;;;5072387;28;20075;-76
2022/10/04 00:45:45;;;;;;;8.77;5.65;;;12.40;99.90;;;;;;5076799;28;20393;-76
2022/10/04 00:48:20;;;;;;;9.27;4.82;;;12.40;99.90;;;;;;5076670;28;20115;-76
2022/10/04 00:51:13;;;;;;;12.55;6.20;;;12.30;99.90;;;;;;5074445;28;20476;-76
2022/10/04 00:53:57;;;;;;;11.57;5.10;;;12.30;99.90;;;;;;5076552;28;20017;-76
2022/10/04 00:56:42;;;;;;;7.45;5.07;;;12.30;99.90;;;;;;5076714;28;20435;-76
2022/10/04 00:59:26;;;;;;;9.30;4.53;;;12.20;99.90;;;;;;5080616;28;20029;-76
2022/10/04 01:02:19;;;;;;;12.30;5.85;;;12.20;99.90;;;;;;5078986;28;20389;-76
2022/10/04 01:04:49;;;;;;;8.93;4.75;;;12.20;99.90;;;;;;5077312;28;20382;-76
2022/10/04 01:07:21;;;;;;;6.25;5.28;;;12.20;99.90;;;;;;5080078;28;20159;-76
2022/10/04 01:10:00;;;;;;;6.22;5.07;;;12.20;99.90;;;;;;5080493;28;20025;-76
2022/10/04 01:12:44;;;;;;;8.57;6.15;;;12.20;99.90;;;;;;5078633;28;20032;-76
2022/10/04 01:15:28;;;;;;;7.47;4.85;;;12.20;99.90;;;;;;5080031;28;20031;-76
2022/10/04 01:18:12;;;;;;;11.20;5.32;;;12.10;99.90;;;;;;5078768;28;20017;-76
2022/10/04 01:20:53;;;;;;;8.43;5.47;;;12.10;99.90;;;;;;5078187;28;20021;-76
2022/10/04 01:23:48;;;;;;;7.82;5.07;;;12.00;99.90;;;;;;5079825;28;20028;-76
2022/10/04 01:26:28;;;;;;;8.85;4.95;;;12.00;99.90;;;;;;5079154;28;20024;-76
2022/10/04 01:29:13;;;;;;;7.97;4.97;;;12.00;99.90;;;;;;5073169;28;20027;-76
2022/10/04 01:31:51;;;;;;;10.27;5.15;;;11.90;99.90;;;;;;5079760;28;20024;-76
2022/10/04 01:34:20;;;;;;;5.85;4.82;;;11.90;99.90;;;;;;5080234;28;20021;-76
2022/10/04 01:36:47;;;;;;;9.75;4.60;;;11.90;99.90;;;;;;5079150;28;20047;-76
2022/10/04 01:39:15;;;;;;;12.13;4.45;;;11.90;99.90;;;;;;5078545;28;20024;-76
2022/10/04 01:41:47;;;;;;;9.52;4.97;;;11.90;99.90;;;;;;5078555;28;20389;-76
2022/10/04 01:44:23;;;;;;;5.57;4.57;;;11.80;99.90;;;;;;5078388;28;20404;-76
2022/10/04 01:46:51;;;;;;;7.25;5.05;;;11.80;99.90;;;;;;5078418;28;20027;-76
2022/10/04 01:49:22;;;;;;;10.93;5.15;;;11.80;99.90;;;;;;5079740;28;20479;-76
2022/10/04 01:52:07;;;;;;;5.75;4.93;;;11.80;99.90;;;;;;5079405;28;20024;-76
2022/10/04 01:55:00;;;;;;;8.60;5.32;;;11.80;99.90;;;;;;5078684;28;20032;-76
2022/10/04 01:57:34;;;;;;;9.38;4.72;;;11.80;99.90;;;;;;5075824;28;20041;-76
2022/10/04 02:00:12;;;;;;;8.20;5.18;;;11.70;99.90;;;;;;5079933;28;20092;-76
2022/10/04 02:02:56;;;;;;;7.68;5.30;;;11.70;99.90;;;;;;5079107;28;20032;-76
2022/10/04 02:05:57;;;;;;;10.10;5.20;;;11.70;99.90;;;;;;5079450;28;20502;-76
2022/10/04 02:08:27;;;;;;;7.15;5.30;;;11.60;99.90;;;;;;5049479;28;20040;-76
2022/10/04 02:10:55;;;;;;;7.30;5.18;;;11.70;99.90;;;;;;5072818;28;20020;-76
2022/10/04 02:13:26;;;;;;;7.03;5.30;;;11.70;99.90;;;;;;5078147;28;20082;-76
2022/10/04 02:15:53;;;;;;;8.23;5.35;;;11.60;99.90;;;;;;5079220;28;20030;-76
2022/10/04 02:18:21;;;;;;;6.32;4.95;;;11.60;99.90;;;;;;5073739;28;20087;-76
2022/10/04 02:20:49;;;;;;;9.35;5.47;;;11.50;99.90;;;;;;5079187;28;20160;-76
2022/10/04 02:23:21;;;;;;;10.07;5.72;;;11.50;99.90;;;;;;5078714;28;20044;-76
2022/10/04 02:25:47;;;;;;;8.05;5.93;;;11.50;99.90;;;;;;5077835;28;20028;-76
2022/10/04 02:28:15;;;;;;;7.18;5.10;;;11.50;99.90;;;;;;5077443;28;20020;-76
2022/10/04 02:32:56;;;;;;;7.97;5.47;;;11.50;99.90;;;;;;5079028;28;20518;-76
2022/10/04 02:33:32;;;;;;;9.18;5.75;;;11.40;99.90;;;;;;5078725;28;20036;-76
2022/10/04 02:35:59;;;;;;;8.63;5.88;;;11.50;99.90;;;;;;5078496;28;20044;-76
2022/10/04 02:38:31;;;;;;;10.02;5.90;;;11.50;99.90;;;;;;5078513;28;20024;-76
2022/10/04 02:41:26;;;;;;;7.63;5.43;;;11.40;99.90;;;;;;5077386;28;20044;-77
2022/10/04 02:44:21;;;;;;;9.77;5.90;;;11.40;99.90;;;;;;5060523;28;20385;-76
2022/10/04 02:46:53;;;;;;;7.47;5.55;;;11.40;99.90;;;;;;5046111;28;20413;-76
2022/10/04 02:49:28;;;;;;;11.95;6.13;;;11.40;99.90;;;;;;5078630;28;20028;-76
2022/10/04 02:52:00;;;;;;;8.02;5.18;;;11.40;99.90;;;;;;5076899;28;20111;-76
2022/10/04 02:54:39;;;;;;;11.80;5.30;;;11.30;99.90;;;;;;5078464;28;20074;-77
2022/10/04 02:57:18;;;;;;;11.80;6.88;;;11.30;99.90;;;;;;5078361;28;20531;-76
2022/10/04 02:59:44;;;;;;;6.28;5.65;;;11.30;99.90;;;;;;5068214;28;20029;-76
2022/10/04 03:02:27;;;;;;;6.10;5.22;;;11.20;99.90;;;;;;5076286;28;20020;-76
2022/10/04 03:04:55;;;;;;;6.75;5.20;;;11.30;99.90;;;;;;5078103;28;20477;-76
2022/10/04 03:07:22;;;;;;;8.70;5.60;;;11.30;99.90;;;;;;5077364;28;20032;-76
2022/10/04 03:09:49;;;;;;;7.65;5.68;;;11.30;99.90;;;;;;5077981;28;20047;-76
2022/10/04 03:12:15;;;;;;;5.55;4.85;;;11.30;99.90;;;;;;5077926;28;20086;-76
2022/10/04 03:14:41;;;;;;;9.80;5.70;;;11.20;99.90;;;;;;5078018;28;20028;-76
2022/10/04 03:17:08;;;;;;;10.70;5.05;;;11.20;99.90;;;;;;5076486;28;20032;-76
2022/10/04 03:19:36;;;;;;;7.40;5.43;;;11.20;99.90;;;;;;5075775;28;20021;-76
2022/10/04 03:22:08;;;;;;;9.23;5.00;;;11.20;99.90;;;;;;5076321;28;20445;-76
2022/10/04 03:24:42;;;;;;;9.55;5.40;;;11.10;99.90;;;;;;5077978;28;20087;-76
2022/10/04 03:27:13;;;;;;;9.18;5.35;;;11.10;99.90;;;;;;5076527;28;20469;-76
2022/10/04 03:29:43;;;;;;;9.13;5.55;;;11.10;99.90;;;;;;5077600;28;20023;-76
2022/10/04 03:32:13;;;;;;;8.30;5.97;;;11.10;99.90;;;;;;5076288;28;20035;-76
2022/10/04 03:34:47;;;;;;;14.03;5.60;;;11.10;99.90;;;;;;5076746;28;20267;-76
2022/10/04 03:37:16;;;;;;;9.88;5.55;;;11.10;99.90;;;;;;5067284;28;20348;-76
2022/10/04 03:39:48;;;;;;;6.28;5.40;;;11.10;99.90;;;;;;5077511;28;20059;-76
2022/10/04 03:42:20;;;;;;;11.05;6.18;;;11.10;99.90;;;;;;5076148;28;20025;-76
2022/10/04 03:44:49;;;;;;;8.70;6.25;;;11.10;99.90;;;;;;5077537;28;20033;-76
2022/10/04 03:47:28;;;;;;;8.00;6.10;;;11.10;99.90;;;;;;5077242;28;20052;-76
2022/10/04 03:49:57;;;;;;;8.60;5.03;;;11.10;99.90;;;;;;5069009;28;20035;-76
2022/10/04 03:52:32;;;;;;;8.05;5.72;;;11.10;99.90;;;;;;5076820;28;20025;-76
2022/10/04 03:55:02;;;;;;;9.35;5.80;;;11.00;99.90;;;;;;5077384;28;20417;-75
2022/10/04 03:57:29;;;;;;;10.60;6.35;;;11.10;99.90;;;;;;5077018;28;20099;-76
2022/10/04 03:59:57;;;;;;;10.52;5.63;;;11.00;99.90;;;;;;5076201;28;20012;-76
2022/10/04 04:02:38;;;;;;;7.25;5.65;;;11.10;99.90;;;;;;5076955;28;20017;-75
2022/10/04 04:05:39;;;;;;;7.70;6.28;;;11.10;99.90;;;;;;5077315;28;20469;-76
2022/10/04 04:08:16;;;;;;;9.18;5.95;;;11.10;99.90;;;;;;5066979;28;20083;-76
2022/10/04 04:10:49;;;;;;;7.13;5.97;;;11.00;99.90;;;;;;5076867;28;20024;-75
2022/10/04 04:13:39;;;;;;;9.82;6.07;;;11.00;99.90;;;;;;5077021;28;20046;-76
2022/10/04 04:16:06;;;;;;;9.20;6.07;;;11.00;99.90;;;;;;5075479;28;20046;-76
2022/10/04 04:18:34;;;;;;;7.90;5.82;;;11.00;99.90;;;;;;5076862;28;20028;-76
2022/10/04 04:21:03;;;;;;;10.95;6.68;;;11.00;99.90;;;;;;5074751;28;20078;-76
2022/10/04 04:23:34;;;;;;;7.90;5.78;;;11.00;99.90;;;;;;5075426;28;20029;-75
2022/10/04 04:26:20;;;;;;;11.73;6.03;;;10.90;99.90;;;;;;5076890;28;20232;-76
2022/10/04 04:28:49;;;;;;;7.57;5.72;;;10.90;99.90;;;;;;5052061;28;20054;-76
2022/10/04 04:31:26;;;;;;;7.40;5.87;;;10.80;99.90;;;;;;5076812;28;20020;-76
2022/10/04 04:33:59;;;;;;;8.50;5.80;;;10.80;99.90;;;;;;5066022;28;20358;-76
2022/10/04 04:36:27;;;;;;;5.95;5.30;;;10.70;99.90;;;;;;5076052;28;20036;-76
2022/10/04 04:41:39;;;;;;;10.52;5.88;;;10.60;99.90;;;;;;5076779;28;20150;-76
2022/10/04 04:44:16;;;;;;;6.90;5.72;;;10.60;99.90;;;;;;5076706;28;20024;-75
2022/10/04 04:46:44;;;;;;;8.35;6.20;;;10.60;99.90;;;;;;5076756;28;20052;-76
2022/10/04 04:49:11;;;;;;;10.07;5.88;;;10.50;99.90;;;;;;5071730;28;20028;-76
2022/10/04 04:51:40;;;;;;;7.60;5.70;;;10.50;99.90;;;;;;5076597;28;20029;-75
2022/10/04 04:54:06;;;;;;;6.18;5.30;;;10.50;99.90;;;;;;5074987;28;20029;-76
2022/10/04 04:56:34;;;;;;;9.15;6.03;;;10.50;99.90;;;;;;5076661;28;20082;-76
2022/10/04 04:59:06;;;;;;;12.32;6.22;;;10.50;99.90;;;;;;5076355;28;20096;-76
2022/10/04 05:01:43;;;;;;;13.10;5.80;;;10.40;99.90;;;;;;5075445;28;20039;-76
2022/10/04 05:04:11;;;;;;;9.10;5.60;;;10.40;99.90;;;;;;5074717;28;20027;-76
2022/10/04 05:06:58;;;;;;;10.05;5.63;;;10.40;99.90;;;;;;5076179;28;20016;-75
2022/10/04 05:09:25;;;;;;;10.05;6.30;;;10.40;99.90;;;;;;5072287;28;20036;-76
2022/10/04 05:11:55;;;;;;;10.05;5.72;;;10.40;99.90;;;;;;5076752;28;20030;-76
2022/10/04 05:14:21;;;;;;;9.90;5.97;;;10.40;99.90;;;;;;5065124;28;20385;-76
2022/10/04 05:16:54;;;;;;;9.45;5.45;;;10.40;99.90;;;;;;5074813;28;20040;-76
2022/10/04 05:19:26;;;;;;;14.55;6.68;;;10.30;99.90;;;;;;5076193;28;20074;-76
2022/10/04 05:21:54;;;;;;;9.40;6.07;;;10.40;99.90;;;;;;5074693;28;20108;-76
2022/10/04 05:24:32;;;;;;;8.13;6.35;;;10.30;99.90;;;;;;5076164;28;20021;-75
2022/10/04 05:27:04;;;;;;;8.60;5.82;;;10.30;99.90;;;;;;5075294;28;20039;-76
2022/10/04 05:29:34;;;;;;;7.43;5.82;;;10.20;99.90;;;;;;5074730;28;20024;-76
2022/10/04 05:32:12;;;;;;;8.07;5.60;;;10.20;99.90;;;;;;5069691;28;20059;-75
2022/10/04 05:34:41;;;;;;;10.20;5.45;;;10.20;99.90;;;;;;5075017;28;20025;-76
2022/10/04 05:37:18;;;;;;;7.65;5.97;;;10.10;99.90;;;;;;5074417;28;20131;-75
2022/10/04 05:40:00;;;;;;;6.15;5.32;;;10.10;99.90;;;;;;5076156;28;20473;-75
2022/10/04 05:42:44;;;;;;;8.07;5.80;;;10.10;99.90;;;;;;5076078;28;20017;-76
2022/10/04 05:45:23;;;;;;;7.35;6.05;;;10.10;99.90;;;;;;5070550;28;20052;-76
2022/10/04 05:47:55;;;;;;;6.78;5.85;;;10.00;99.90;;;;;;5078201;28;20044;-76
2022/10/04 05:50:40;;;;;;;14.65;6.50;;;10.00;99.90;;;;;;5079913;28;20023;-76
2022/10/04 05:53:28;;;;;;;7.78;5.70;;;10.00;99.90;;;;;;5065200;28;20054;-76
2022/10/04 05:56:14;;;;;;;7.93;5.70;;;10.00;99.90;;;;;;5079275;28;20033;-76
2022/10/04 05:58:52;;;;;;;6.70;5.15;;;10.00;99.90;;;;;;5079613;28;20449;-76
2022/10/04 06:01:39;;;;;;;6.90;5.75;;;10.00;99.90;;;;;;5078010;28;20099;-76
2022/10/04 06:04:39;;;;;;;10.20;6.05;;;10.00;99.90;;;;;;5078358;28;20052;-76
2022/10/04 06:07:30;;;;;;;7.82;5.53;;;10.00;99.90;;;;;;5074775;28;20103;-76
2022/10/04 06:10:24;;;;;;;9.77;7.13;;;10.00;99.90;;;;;;5079193;28;20028;-76
2022/10/04 06:13:05;;;;;;;7.50;5.45;;;10.00;99.90;;;;;;5074200;28;20028;-76
2022/10/04 06:15:34;;;;;;;;;;;10.10;99.90;;;;;;5078151;28;20437;-76
2022/10/04 06:18:24;;;;;;;10.90;6.75;;;10.10;99.90;;;;;;5078853;28;19904;-76
2022/10/04 06:20:59;;;;;;;9.00;6.43;;;10.10;99.90;;;;;;5093592;28;20029;-76
2022/10/04 06:23:27;;;;;;;7.32;5.80;;;10.20;99.90;;;;;;5075897;28;20255;-76
2022/10/04 06:26:18;;;;;;;10.90;5.85;;;10.20;99.90;;;;;;5078798;28;20024;-76
2022/10/04 06:28:50;;;;;;;;;;;10.30;99.90;;;;;;5078618;28;20451;-76
2022/10/04 06:31:24;;;;;;;12.02;6.05;;;10.30;99.90;;;;;;5078865;28;19999;-76
2022/10/04 06:34:12;;;;;;;10.23;6.82;;;10.40;99.90;;;;;;5078563;28;20081;-76
2022/10/04 06:37:17;;;;;;;8.63;7.20;;;10.50;99.90;;;;;;5078167;28;20033;-76
2022/10/04 06:40:20;;;;;;;11.45;7.28;;;10.50;99.90;;;;;;5078413;28;20021;-76
2022/10/04 06:43:21;;;;;;;11.85;7.75;;;10.60;99.90;;;;;;5074491;28;20377;-76
2022/10/04 06:46:08;;;;;;;10.18;6.90;;;10.70;99.90;;;;;;5078813;28;20116;-76
2022/10/04 06:48:34;;;;;;;11.63;6.15;;;10.80;99.90;;;;;;5077225;28;20074;-76
2022/10/04 06:51:09;;;;;;;8.85;6.80;;;10.80;99.90;;;;;;5076819;28;20036;-76
2022/10/04 06:54:07;;;;;;;17.92;6.97;;;10.90;99.90;;;;;;5078845;28;20032;-76
2022/10/04 06:56:57;;;;;;;17.13;7.60;;;11.00;99.90;;;;;;5046038;28;20512;-76
2022/10/04 06:59:25;;;;;;;10.98;7.32;;;11.10;99.90;;;;;;5078226;28;20488;-76
2022/10/04 07:01:57;;;;;;;11.07;7.40;;;11.10;99.90;;;;;;5076902;28;20025;-76
2022/10/04 07:04:45;;;;;;;10.05;6.93;;;11.20;99.90;;;;;;5078091;28;20016;-76
2022/10/04 07:07:34;;;;;;;11.52;7.07;;;11.30;99.90;;;;;;5077643;28;20107;-76
2022/10/04 07:10:12;;;;;;;8.85;7.18;;;11.40;99.90;;;;;;5071076;28;20055;-76
2022/10/04 07:12:41;;;;;;;10.35;6.80;;;11.50;99.90;;;;;;5074230;28;20025;-76
2022/10/04 07:15:49;;;;;;;16.13;7.53;;;11.60;99.90;;;;;;5077783;28;20028;-76
2022/10/04 07:18:23;;;;;;;9.73;7.15;;;11.70;99.90;;;;;;5060734;28;20039;-76
2022/10/04 07:20:58;;;;;;;11.27;7.72;;;11.90;99.90;;;;;;5077812;28;20048;-76
2022/10/04 07:23:31;;;;;;;9.77;7.63;;;12.10;99.90;;;;;;5073847;28;20021;-76
2022/10/04 07:26:13;;;;;;;9.52;7.38;;;12.20;99.90;;;;;;5077915;28;20111;-76
2022/10/04 07:31:33;;;;;;;15.77;8.23;;;12.50;99.90;;;;;;5072957;28;20078;-76
2022/10/04 07:34:21;;;;;;;10.68;6.68;;;12.60;99.90;;;;;;5077466;28;20116;-76
2022/10/04 07:37:01;;;;;;;12.40;6.43;;;12.80;99.90;;;;;;5076041;28;20063;-76
2022/10/04 07:39:39;;;;;;;8.23;6.35;;;12.90;99.90;;;;;;5077609;28;20017;-76
2022/10/04 07:42:30;;;;;;;29.27;6.97;;;13.00;99.90;;;;;;5076075;28;20056;-76
2022/10/04 07:45:22;;;;;;;10.63;7.22;;;13.20;99.90;;;;;;5077474;28;20024;-76
2022/10/04 07:47:48;;;;;;;10.60;6.47;;;13.20;99.90;;;;;;5072429;28;20048;-76
2022/10/04 07:50:22;;;;;;;11.43;5.95;;;13.20;99.90;;;;;;5076300;28;20028;-76
2022/10/04 07:53:05;;;;;;;9.90;6.25;;;13.30;99.90;;;;;;5077005;28;20047;-76
2022/10/04 07:55:37;;;;;;;10.45;6.65;;;13.40;99.90;;;;;;5057576;28;20025;-76
2022/10/04 07:58:11;;;;;;;10.05;6.45;;;13.50;99.90;;;;;;5091354;28;20512;-77
2022/10/04 08:00:55;;;;;;;10.13;6.10;;;13.60;99.90;;;;;;5072632;28;20021;-77
2022/10/04 08:03:41;;;;;;;10.52;5.57;;;13.70;99.90;;;;;;5075825;28;20096;-76
2022/10/04 08:06:10;;;;;;;6.50;5.53;;;13.80;99.90;;;;;;5051716;28;20033;-76
2022/10/04 08:09:15;;;;;;;11.30;6.03;;;13.80;99.90;;;;;;5076149;28;20078;-77
2022/10/04 08:11:48;;;;;;;17.85;5.88;;;13.90;99.90;;;;;;5068447;28;20030;-76
2022/10/04 08:14:26;;;;;;;8.90;5.88;;;14.00;99.90;;;;;;5075866;28;20033;-76
2022/10/04 08:17:40;;;;;;;16.48;5.55;;;14.10;99.90;;;;;;5072453;28;20148;-76
2022/10/04 08:20:35;;;;;;;8.88;6.60;;;14.30;99.90;;;;;;5053705;28;20029;-77
2022/10/04 08:23:34;;;;;;;8.75;5.57;;;14.40;99.90;;;;;;5055685;28;20031;-76
2022/10/04 08:26:06;;;;;;;8.90;5.25;;;14.60;99.90;;;;;;5055770;28;20389;-76
2022/10/04 08:32:06;;;;;;;7.22;5.00;;;14.90;99.90;;;;;;5056979;28;20044;-76
2022/10/04 08:34:57;;;;;;;7.32;5.20;;;15.00;99.90;;;;;;5055364;28;20114;-77
2022/10/04 08:37:28;;;;;;;;;;;15.10;99.90;;;;;;5056886;28;20052;-77
2022/10/04 08:40:07;;;;;;;10.00;5.53;;;15.30;99.90;;;;;;5056490;28;19927;-76
2022/10/04 08:43:02;;;;;;;6.18;4.55;;;15.40;99.90;;;;;;5056877;28;20017;-76
2022/10/04 08:45:43;;;;;;;9.88;5.32;;;15.50;99.90;;;;;;5055415;28;20493;-76
2022/10/04 08:48:27;;;;;;;;;;;15.60;99.90;;;;;;5055967;28;20539;-76
2022/10/04 08:51:11;;;;;;;8.35;4.70;;;15.70;99.90;;;;;;5051915;28;20002;-77
2022/10/04 08:53:41;;;;;;;7.45;4.78;;;15.80;99.90;;;;;;5056768;28;20024;-76
2022/10/04 08:56:25;;;;;;;4.97;4.07;;;15.90;99.90;;;;;;5055378;28;20473;-76
2022/10/04 08:59:16;;;;;;;9.57;4.93;;;16.00;99.90;;;;;;5055143;28;20509;-77
2022/10/04 09:02:12;;;;;;;6.78;4.80;;;16.20;99.90;;;;;;5055185;28;20031;-76
2022/10/04 09:05:00;;;;;;;9.20;4.45;;;16.40;99.90;;;;;;5045898;28;20380;-76
2022/10/04 09:08:10;;;;;;;6.40;4.50;;;16.40;99.90;;;;;;5055001;28;20017;-76
2022/10/04 09:11:04;;;;;;;4.30;3.90;;;16.50;99.90;;;;;;5054128;28;20097;-76
2022/10/04 09:13:45;;;;;;;7.88;3.83;;;16.60;99.90;;;;;;5055491;28;20041;-77
2022/10/04 09:16:14;;;;;;;;;;;16.60;99.90;;;;;;5047031;28;20029;-77
2022/10/04 09:19:11;;;;;;;5.03;3.22;;;16.80;99.90;;;;;;5058127;28;19912;-76
2022/10/04 09:21:45;;;;;;;5.90;3.30;;;16.80;99.90;;;;;;5054817;28;20017;-76
2022/10/04 09:24:59;;;;;;;4.93;3.72;;;16.90;99.90;;;;;;5060102;28;20029;-76
2022/10/04 09:27:53;;;;;;;6.90;4.05;;;17.10;99.90;;;;;;5055175;28;20108;-76
2022/10/04 09:30:32;;;;;;;7.97;3.47;;;17.10;99.90;;;;;;5060122;28;20033;-76
2022/10/04 09:32:58;;;;;;;6.25;3.22;;;17.20;99.90;;;;;;5058672;28;20029;-77
2022/10/04 09:35:28;;;;;;;11.80;3.97;;;17.30;99.90;;;;;;5059788;28;20049;-76
2022/10/04 09:38:29;;;;;;;8.95;3.95;;;17.40;99.90;;;;;;5059517;28;20021;-76
2022/10/04 09:41:10;;;;;;;7.50;3.67;;;17.50;99.90;;;;;;5052044;28;20017;-77
2022/10/04 09:44:02;;;;;;;;;;;17.60;99.90;;;;;;5058764;28;20020;-76
2022/10/04 09:46:43;;;;;;;7.05;3.25;;;17.70;99.90;;;;;;5059640;28;19966;-76
2022/10/04 09:49:15;;;;;;;15.05;3.92;;;17.80;99.90;;;;;;5052901;28;20040;-77
2022/10/04 09:52:32;;;;;;;6.25;2.90;;;18.00;99.90;;;;;;5059507;28;20025;-77
2022/10/04 09:55:24;;;;;;;13.30;2.90;;;18.10;99.90;;;;;;5030492;28;20045;-77
2022/10/04 09:58:10;;;;;;;5.32;3.10;;;18.30;99.90;;;;;;5058874;28;20029;-77
2022/10/04 10:00:46;;;;;;;10.45;2.67;;;18.40;99.90;;;;;;5059562;28;20009;-77
2022/10/04 10:03:25;;;;;;;4.55;2.60;;;18.50;99.90;;;;;;5059544;28;20029;-77
2022/10/04 10:06:15;;;;;;;4.45;2.28;;;18.60;99.90;;;;;;5059397;28;20139;-77
2022/10/04 10:13:38;;;;;;;3.85;2.55;;;18.70;99.90;;;;;;5059395;28;20108;-77
2022/10/04 10:15:32;;;;;;;2.67;1.92;;;18.80;99.90;;;;;;5059543;28;20090;-76
2022/10/04 10:18:10;;;;;;;4.32;2.13;;;19.00;99.90;;;;;;5050634;28;20016;-77
2022/10/04 10:21:06;;;;;;;7.05;2.45;;;19.10;99.90;;;;;;5057583;28;20051;-77
2022/10/04 10:23:55;;;;;;;6.78;2.25;;;19.10;99.90;;;;;;5059222;28;20481;-77
2022/10/04 10:26:35;;;;;;;4.05;1.80;;;19.20;99.90;;;;;;5058838;28;20107;-77
2022/10/04 10:29:19;;;;;;;3.03;1.70;;;19.30;99.90;;;;;;5058998;28;20025;-77
2022/10/04 10:32:03;;;;;;;4.38;2.17;;;19.40;99.90;;;;;;5057680;28;20025;-76
2022/10/04 10:35:08;;;;;;;5.43;2.55;;;19.50;99.90;;;;;;5057783;28;20033;-76
2022/10/04 10:37:57;;;;;;;3.90;1.90;;;19.50;99.90;;;;;;5055025;28;20053;-76
2022/10/04 10:40:39;;;;;;;2.80;1.67;;;19.50;99.90;;;;;;5058748;28;20021;-76
2022/10/04 10:43:28;;;;;;;4.38;2.10;;;19.60;99.90;;;;;;5058997;28;20025;-75
2022/10/04 10:46:19;;;;;;;4.85;2.30;;;19.70;99.90;;;;;;5053815;28;20892;-76
2022/10/04 10:49:21;;;;;;;4.95;2.17;;;19.70;99.90;;;;;;5058614;28;20021;-76
2022/10/04 10:52:04;;;;;;;5.47;1.90;;;19.80;99.90;;;;;;5058334;28;20021;-76
2022/10/04 10:54:44;;;;;;;5.07;2.28;;;19.90;99.90;;;;;;5058590;28;20021;-76
2022/10/04 10:57:28;;;;;;;6.93;2.00;;;20.00;99.90;;;;;;5056960;28;20021;-75
2022/10/04 11:00:16;;;;;;;8.38;2.30;;;20.00;99.90;;;;;;5058864;28;20040;-76
2022/10/04 11:03:11;;;;;;;5.80;2.20;;;20.10;99.90;;;;;;5058269;28;20032;-76
2022/10/04 11:06:06;;;;;;;3.42;2.08;;;20.20;99.90;;;;;;5056912;28;20029;-76
2022/10/04 11:09:14;;;;;;;6.03;2.25;;;20.30;99.90;;;;;;5056936;28;20086;-76
2022/10/04 11:12:04;;;;;;;4.43;2.38;;;20.40;99.90;;;;;;5051832;28;20028;-76
2022/10/04 11:14:44;;;;;;;9.98;3.50;;;20.50;99.90;;;;;;5047189;28;20017;-76
2022/10/04 11:17:19;;;;;;;5.47;2.03;;;20.60;99.90;;;;;;5056446;28;20033;-76
2022/10/04 11:19:56;;;;;;;3.22;1.95;;;20.70;99.90;;;;;;5057950;28;20053;-76
2022/10/04 11:22:59;;;;;;;4.07;1.83;;;20.70;99.90;;;;;;5057697;28;20028;-76
2022/10/04 11:26:22;;;;;;;6.97;2.13;;;20.70;99.90;;;;;;5056540;28;20045;-76
2022/10/04 11:28:55;;;;;;;4.78;2.47;;;20.80;99.90;;;;;;5003519;28;20025;-76
2022/10/04 11:32:02;;;;;;;5.10;2.35;;;20.90;99.90;;;;;;4997615;28;20222;-76
2022/10/04 11:34:49;;;;;;;7.32;2.67;;;20.90;99.90;;;;;;5042939;28;20409;-77
2022/10/04 11:37:33;;;;;;;6.40;1.98;;;21.00;99.90;;;;;;5055966;28;20037;-76
2022/10/04 11:40:17;;;;;;;8.13;2.35;;;21.10;99.90;;;;;;5056696;28;20028;-76
2022/10/04 11:42:57;;;;;;;7.63;2.50;;;21.10;99.90;;;;;;5056176;28;20075;-76
2022/10/04 11:45:45;;;;;;;7.67;2.40;;;21.20;99.90;;;;;;5057503;28;20025;-76
2022/10/04 11:48:40;;;;;;;8.18;2.38;;;21.20;99.90;;;;;;5057567;28;20029;-76
2022/10/04 11:51:09;;;;;;;4.88;1.65;;;21.30;99.90;;;;;;5055150;28;20066;-76
2022/10/04 11:54:03;;;;;;;4.70;1.90;;;21.30;99.90;;;;;;5056048;28;20103;-77
2022/10/04 11:56:39;;;;;;;5.50;2.05;;;21.20;99.90;;;;;;5057777;28;20477;-77
2022/10/04 11:59:11;;;;;;;5.88;2.30;;;21.20;99.90;;;;;;5057276;28;20040;-77
2022/10/04 12:02:19;;;;;;;5.18;2.10;;;21.20;99.90;;;;;;5057362;28;20109;-76
2022/10/04 12:05:01;;;;;;;9.25;2.28;;;21.30;99.90;;;;;;5046044;28;20025;-77
2022/10/04 12:07:42;;;;;;;4.22;2.33;;;21.30;99.90;;;;;;5055757;28;20025;-77
2022/10/04 12:10:41;;;;;;;6.95;1.98;;;21.40;99.90;;;;;;5057101;28;20048;-76
2022/10/04 12:13:16;;;;;;;5.95;1.88;;;21.40;99.90;;;;;;5006380;28;20041;-76
2022/10/04 12:16:26;;;;;;;3.78;2.00;;;21.40;99.90;;;;;;5056063;28;20029;-76
2022/10/04 12:18:57;;;;;;;7.15;2.85;;;21.40;99.90;;;;;;5030577;28;20028;-77
2022/10/04 12:21:51;;;;;;;6.18;2.42;;;21.60;99.90;;;;;;5012593;28;20053;-75
2022/10/04 12:24:50;;;;;;;3.92;1.98;;;21.70;99.90;;;;;;5044942;28;20032;-76
2022/10/04 12:27:44;;;;;;;9.98;2.88;;;21.70;99.90;;;;;;5045107;28;20371;-77
2022/10/04 12:30:19;;;;;;;6.45;1.98;;;21.70;99.90;;;;;;5055434;28;20033;-76
2022/10/04 12:32:48;;;;;;;4.95;2.40;;;21.80;99.90;;;;;;5056893;28;20528;-76
2022/10/04 12:35:53;;;;;;;7.22;2.50;;;21.80;99.90;;;;;;5055319;28;20021;-76
2022/10/04 12:38:23;;;;;;;4.32;1.92;;;22.00;99.90;;;;;;5056676;28;20025;-76
2022/10/04 12:41:13;;;;;;;3.85;1.75;;;22.10;99.90;;;;;;5056859;28;20432;-77
2022/10/04 12:43:51;;;;;;;3.17;2.10;;;22.20;99.90;;;;;;5056843;28;20025;-77
2022/10/04 12:46:20;;;;;;;3.33;1.85;;;22.20;99.90;;;;;;5055361;28;20033;-77
2022/10/04 12:48:54;;;;;;;9.95;2.40;;;22.30;99.90;;;;;;5055338;28;20519;-76
2022/10/04 12:51:38;;;;;;;5.22;1.80;;;22.40;99.90;;;;;;5055497;28;20036;-76
2022/10/04 12:55:00;;;;;;;4.22;1.70;;;22.50;99.90;;;;;;5059624;28;20021;-77
2022/10/04 12:57:42;;;;;;;5.50;2.00;;;22.70;99.90;;;;;;4998455;28;20092;-77
2022/10/04 13:00:24;;;;;;;5.03;2.20;;;22.70;99.90;;;;;;5052483;28;20024;-76
2022/10/04 13:03:27;;;;;;;6.45;2.30;;;22.70;99.90;;;;;;5060598;28;20504;-76
2022/10/04 13:06:22;;;;;;;3.50;1.90;;;22.80;99.90;;;;;;5021219;28;20038;-76
2022/10/04 13:09:26;;;;;;;10.70;1.85;;;22.70;99.90;;;;;;5060697;28;20033;-76
2022/10/04 13:11:59;;;;;;;3.45;1.90;;;22.80;99.90;;;;;;5048657;28;20033;-75
2022/10/04 13:14:41;;;;;;;5.40;1.83;;;22.80;99.90;;;;;;5059049;28;20021;-75
2022/10/04 13:17:34;;;;;;;5.95;2.08;;;22.90;99.90;;;;;;5060329;28;20025;-76
2022/10/04 13:20:21;;;;;;;6.10;2.38;;;23.00;99.90;;;;;;5060261;28;20051;-75
2022/10/04 13:23:31;;;;;;;4.60;1.83;;;23.10;99.90;;;;;;5060193;28;20036;-76
2022/10/04 13:26:14;;;;;;;4.95;1.95;;;23.30;99.90;;;;;;5013566;28;20037;-75
2022/10/04 13:29:01;;;;;;;3.38;1.80;;;23.30;99.90;;;;;;5046299;28;20048;-76
2022/10/04 13:32:01;;;;;;;6.25;1.80;;;23.30;99.90;;;;;;5058701;28;20021;-76
2022/10/04 13:34:38;;;;;;;5.72;1.90;;;23.40;99.90;;;;;;5028202;28;20037;-76
2022/10/04 13:37:36;;;;;;;4.00;1.55;;;23.40;99.90;;;;;;5047885;28;20056;-76
2022/10/04 13:40:48;;;;;;;7.57;1.92;;;23.50;99.90;;;;;;5059864;28;20494;-77
2022/10/04 13:43:48;;;;;;;4.20;1.90;;;23.50;99.90;;;;;;5049784;28;20067;-76
2022/10/04 13:46:25;;;;;;;2.00;1.38;;;23.50;99.90;;;;;;5059772;28;20044;-76
2022/10/04 13:48:57;;;;;;;8.43;1.88;;;23.40;99.90;;;;;;5059826;28;20032;-76
2022/10/04 13:51:39;;;;;;;2.97;1.70;;;23.40;99.90;;;;;;5059450;28;20029;-76
2022/10/04 13:57:30;;;;;;;4.18;1.58;;;23.40;99.90;;;;;;5059139;28;20083;-76
2022/10/04 14:00:15;;;;;;;4.78;1.85;;;23.50;99.90;;;;;;5059483;28;20048;-76
2022/10/04 14:03:18;;;;;;;3.80;1.52;;;23.50;99.90;;;;;;5058120;28;20021;-77
2022/10/04 14:06:13;;;;;;;2.95;1.70;;;23.50;99.90;;;;;;5058684;28;20032;-77
2022/10/04 14:08:57;;;;;;;2.80;1.45;;;23.60;99.90;;;;;;5059410;28;20040;-76
2022/10/04 14:11:52;;;;;;;5.30;1.38;;;23.60;99.90;;;;;;5050373;28;20421;-76
2022/10/04 14:14:38;;;;;;;7.22;1.38;;;23.70;99.90;;;;;;5040717;28;20025;-77